createdAt,value
2018-08-24T00:01:27.950Z,99204.88
2018-08-24T00:03:56.254Z,99213.84
2018-08-24T00:06:24.379Z,99217.28
2018-08-24T00:08:52.642Z,99211.67
2018-08-24T00:11:21.585Z,99219.69
2018-08-24T00:13:49.683Z,99215.29
2018-08-24T00:16:22.130Z,99205.26
2018-08-24T00:18:50.234Z,99211.59
2018-08-24T00:21:18.294Z,99207.88
2018-08-24T00:23:46.347Z,99216.27
2018-08-24T00:26:14.557Z,99216.20
2018-08-24T00:28:47.759Z,99219.38
2018-08-24T00:31:15.834Z,99222.09
2018-08-24T00:33:48.067Z,99228.78
2018-08-24T00:36:17.030Z,99236.58
2018-08-24T00:38:45.207Z,99216.60
2018-08-24T00:41:13.637Z,99225.72
2018-08-24T00:43:41.670Z,99225.25
2018-08-24T00:46:10.867Z,99232.28
2018-08-24T00:48:39.267Z,99228.06
2018-08-24T00:51:08.679Z,99239.41
2018-08-24T00:53:38.692Z,99244.45
2018-08-24T00:56:07.378Z,99245.59
2018-08-24T00:58:36.694Z,99255.75
2018-08-24T01:01:05.276Z,99253.91
2018-08-24T01:03:33.420Z,99250.20
2018-08-24T01:06:01.494Z,99250.08
2018-08-24T01:08:30.094Z,99251.27
2018-08-24T01:10:58.279Z,99247.12
2018-08-24T01:13:26.373Z,99255.59
2018-08-24T01:15:59.829Z,99267.70
2018-08-24T01:18:33.658Z,99276.34
2018-08-24T01:21:02.228Z,99277.29
2018-08-24T01:23:32.174Z,99275.38
2018-08-24T01:26:00.718Z,99284.51
2018-08-24T01:28:29.499Z,99279.67
2018-08-24T01:31:03.173Z,99271.89
2018-08-24T01:33:31.923Z,99283.05
2018-08-24T01:36:00.007Z,99280.86
2018-08-24T01:38:28.135Z,99284.05
2018-08-24T01:40:56.244Z,99291.91
2018-08-24T01:43:24.403Z,99278.80
2018-08-24T01:45:57.997Z,99279.55
2018-08-24T01:48:26.116Z,99289.35
2018-08-24T01:50:54.158Z,99290.63
2018-08-24T01:53:22.239Z,99294.82
2018-08-24T01:55:50.296Z,99295.91
2018-08-24T01:58:18.350Z,99299.00
2018-08-24T02:00:46.454Z,99285.88
2018-08-24T02:03:14.470Z,99290.16
2018-08-24T02:05:42.526Z,99287.79
2018-08-24T02:08:10.580Z,99277.95
2018-08-24T02:10:38.728Z,99276.11
2018-08-24T02:13:12.178Z,99276.52
2018-08-24T02:15:46.245Z,99269.54
2018-08-24T02:18:19.642Z,99270.75
2018-08-24T02:20:52.978Z,99273.32
2018-08-24T02:23:21.059Z,99282.41
2018-08-24T02:25:49.162Z,99281.19
2018-08-24T02:28:17.272Z,99280.67
2018-08-24T02:30:45.339Z,99288.89
2018-08-24T02:33:14.419Z,99284.19
2018-08-24T02:35:42.579Z,99284.84
2018-08-24T02:38:10.723Z,99283.72
2018-08-24T02:40:38.840Z,99276.56
2018-08-24T02:43:06.911Z,99279.28
2018-08-24T02:45:34.994Z,99276.37
2018-08-24T02:48:03.170Z,99272.34
2018-08-24T02:50:31.283Z,99282.36
2018-08-24T02:52:59.599Z,99283.58
2018-08-24T02:55:27.834Z,99276.58
2018-08-24T02:57:55.909Z,99274.08
2018-08-24T03:00:24.018Z,99270.13
2018-08-24T03:02:52.180Z,99276.81
2018-08-24T03:05:20.349Z,99275.30
2018-08-24T03:07:48.355Z,99279.52
2018-08-24T03:10:16.470Z,99277.55
2018-08-24T03:12:44.538Z,99276.52
2018-08-24T03:15:12.651Z,99282.41
2018-08-24T03:17:46.062Z,99282.25
2018-08-24T03:20:14.539Z,99290.79
2018-08-24T03:22:42.649Z,99286.19
2018-08-24T03:25:10.882Z,99287.34
2018-08-24T03:27:39.030Z,99290.14
2018-08-24T03:30:07.131Z,99291.63
2018-08-24T03:32:35.213Z,99287.36
2018-08-24T03:35:03.367Z,99287.02
2018-08-24T03:37:31.547Z,99279.59
2018-08-24T03:39:59.754Z,99290.33
2018-08-24T03:42:27.885Z,99291.69
2018-08-24T03:44:55.985Z,99290.73
2018-08-24T03:47:24.082Z,99292.19
2018-08-24T03:49:53.215Z,99296.64
2018-08-24T03:52:21.381Z,99292.23
2018-08-24T03:54:49.465Z,99295.95
2018-08-24T03:57:17.544Z,99299.56
2018-08-24T03:59:45.660Z,99293.06
2018-08-24T04:02:14.661Z,99296.53
2018-08-24T04:04:42.786Z,99299.89
2018-08-24T04:07:10.951Z,99300.62
2018-08-24T04:09:39.230Z,99296.83
2018-08-24T04:12:07.358Z,99299.58
2018-08-24T04:14:35.420Z,99306.34
2018-08-24T04:17:08.868Z,99307.17
2018-08-24T04:19:37.163Z,99313.89
2018-08-24T04:22:05.134Z,99300.91
2018-08-24T04:24:33.215Z,99313.09
2018-08-24T04:27:01.349Z,99323.78
2018-08-24T04:29:29.508Z,99336.19
2018-08-24T04:31:57.595Z,99339.52
2018-08-24T04:34:25.761Z,99333.78
2018-08-24T04:36:53.832Z,99330.38
2018-08-24T04:39:22.014Z,99330.06
2018-08-24T04:41:50.134Z,99331.28
2018-08-24T04:44:18.215Z,99331.70
2018-08-24T04:46:46.387Z,99330.83
2018-08-24T04:49:14.941Z,99341.02
2018-08-24T04:51:43.066Z,99342.64
2018-08-24T04:54:11.159Z,99342.92
2018-08-24T04:56:39.266Z,99353.59
2018-08-24T04:59:07.364Z,99353.28
2018-08-24T05:01:35.440Z,99357.02
2018-08-24T05:04:03.496Z,99361.98
2018-08-24T05:06:31.572Z,99361.52
2018-08-24T05:08:59.615Z,99359.70
2018-08-24T05:11:27.705Z,99363.59
2018-08-24T05:13:55.777Z,99357.33
2018-08-24T05:16:23.909Z,99363.63
2018-08-24T05:18:52.021Z,99366.54
2018-08-24T05:21:20.170Z,99365.34
2018-08-24T05:23:48.224Z,99370.03
2018-08-24T05:26:16.324Z,99370.20
2018-08-24T05:28:45.343Z,99375.23
2018-08-24T05:31:13.558Z,99376.52
2018-08-24T05:33:41.726Z,99388.43
2018-08-24T05:36:09.920Z,99394.05
2018-08-24T05:38:38.053Z,99392.02
2018-08-24T05:41:06.735Z,99397.77
2018-08-24T05:43:34.957Z,99402.30
2018-08-24T05:46:03.055Z,99399.66
2018-08-24T05:48:31.179Z,99409.00
2018-08-24T05:50:59.258Z,99397.91
2018-08-24T05:53:27.404Z,99404.61
2018-08-24T05:55:55.794Z,99410.91
2018-08-24T05:58:24.061Z,99419.53
2018-08-24T06:00:52.279Z,99421.61
2018-08-24T06:03:20.526Z,99424.26
2018-08-24T06:05:54.371Z,99418.34
2018-08-24T06:08:22.459Z,99424.41
2018-08-24T06:10:50.602Z,99434.70
2018-08-24T06:13:20.193Z,99433.19
2018-08-24T06:15:49.736Z,99447.41
2018-08-24T06:18:17.856Z,99457.23
2018-08-24T06:20:45.959Z,99453.92
2018-08-24T06:23:14.642Z,99462.70
2018-08-24T06:25:42.734Z,99472.33
2018-08-24T06:28:10.962Z,99483.30
2018-08-24T06:30:39.126Z,99491.88
2018-08-24T06:33:07.242Z,99499.45
2018-08-24T06:35:35.311Z,99509.50
2018-08-24T06:38:03.427Z,99517.87
2018-08-24T06:40:31.506Z,99522.55
2018-08-24T06:42:59.608Z,99526.58
2018-08-24T06:45:27.707Z,99544.09
2018-08-24T06:47:55.982Z,99550.30
2018-08-24T06:50:25.181Z,99561.77
2018-08-24T06:52:53.364Z,99550.27
2018-08-24T06:55:21.434Z,99554.95
2018-08-24T06:57:49.893Z,99563.73
2018-08-24T07:00:23.387Z,99572.99
2018-08-24T07:02:51.531Z,99567.34
2018-08-24T07:05:19.958Z,99565.38
2018-08-24T07:07:48.534Z,99598.67
2018-08-24T07:10:16.657Z,99598.41
2018-08-24T07:12:45.487Z,99606.47
2018-08-24T07:15:13.537Z,99613.55
2018-08-24T07:17:46.927Z,99600.96
2018-08-24T07:25:12.829Z,99613.39
2018-08-24T07:27:40.916Z,99620.05
2018-08-24T07:30:09.011Z,99621.68
2018-08-24T07:32:37.188Z,99634.27
2018-08-24T07:35:05.309Z,99660.66
2018-08-24T07:37:33.359Z,99653.06
2018-08-24T07:40:01.453Z,99653.26
2018-08-24T07:42:35.535Z,99657.22
2018-08-24T07:45:03.616Z,99653.13
2018-08-24T07:47:31.707Z,99664.77
2018-08-24T07:49:59.790Z,99652.90
2018-08-24T07:52:28.112Z,99653.41
2018-08-24T07:54:56.213Z,99669.22
2018-08-24T07:57:24.296Z,99666.05
2018-08-24T07:59:52.367Z,99666.27
2018-08-24T08:02:25.138Z,99675.27
2018-08-24T08:04:53.506Z,99684.34
2018-08-24T08:07:21.688Z,99692.70
2018-08-24T08:09:49.938Z,99676.30
2018-08-24T08:12:18.034Z,99686.23
2018-08-24T08:14:51.479Z,99687.97
2018-08-24T08:17:19.587Z,99693.53
2018-08-24T08:19:47.714Z,99693.89
2018-08-24T08:22:16.016Z,99689.44
2018-08-24T08:24:44.221Z,99685.24
2018-08-24T08:27:12.282Z,99694.88
2018-08-24T08:29:46.171Z,99697.28
2018-08-24T08:32:14.552Z,99710.44
2018-08-24T08:34:48.191Z,99707.00
2018-08-24T08:37:16.315Z,99712.70
2018-08-24T08:39:44.484Z,99710.05
2018-08-24T08:42:12.584Z,99710.81
2018-08-24T08:44:40.694Z,99730.53
2018-08-24T08:47:08.914Z,99732.88
2018-08-24T08:49:37.207Z,99722.94
2018-08-24T08:52:05.350Z,99764.52
2018-08-24T08:54:33.635Z,99751.29
2018-08-24T08:57:01.782Z,99762.00
2018-08-24T08:59:30.000Z,99763.77
2018-08-24T09:01:58.167Z,99771.21
2018-08-24T09:04:26.277Z,99762.52
2018-08-24T09:06:54.383Z,99789.41
2018-08-24T09:09:22.521Z,99786.92
2018-08-24T09:11:50.631Z,99791.66
2018-08-24T09:14:18.786Z,99759.53
2018-08-24T09:16:46.903Z,99752.77
2018-08-24T09:19:21.222Z,99752.48
2018-08-24T09:21:54.657Z,99799.76
2018-08-24T09:24:28.207Z,99809.17
2018-08-24T09:27:01.951Z,99835.39
2018-08-24T09:29:30.060Z,99848.28
2018-08-24T09:31:59.623Z,99861.52
2018-08-24T09:34:27.718Z,99880.86
2018-08-24T09:36:55.822Z,99863.87
2018-08-24T09:39:27.942Z,99846.83
2018-08-24T09:41:58.363Z,99832.44
2018-08-24T09:44:26.461Z,99843.38
2018-08-24T09:47:00.112Z,99833.48
2018-08-24T09:49:39.110Z,99855.13
2018-08-24T09:52:12.511Z,99868.05
2018-08-24T09:54:40.590Z,99875.08
2018-08-24T09:57:08.735Z,99839.14
2018-08-24T09:59:36.814Z,99716.66
2018-08-24T10:02:10.192Z,99719.48
2018-08-24T10:04:43.525Z,99719.91
2018-08-24T10:07:17.014Z,99702.30
2018-08-24T10:14:42.297Z,99691.52
2018-08-24T10:17:10.498Z,99758.86
2018-08-24T10:19:38.567Z,99782.83
2018-08-24T10:22:06.699Z,99787.15
2018-08-24T10:24:34.926Z,99802.41
2018-08-24T10:27:02.992Z,99799.27
2018-08-24T10:29:31.100Z,99768.48
2018-08-24T10:31:59.261Z,99789.94
2018-08-24T10:34:27.352Z,99803.84
2018-08-24T10:36:55.397Z,99806.43
2018-08-24T10:39:24.344Z,99807.65
2018-08-24T10:41:53.549Z,99815.03
2018-08-24T10:44:21.663Z,99833.93
2018-08-24T10:46:49.808Z,99847.73
2018-08-24T10:49:17.969Z,99818.09
2018-08-24T10:51:46.385Z,99833.09
2018-08-24T10:54:14.426Z,99823.40
2018-08-24T10:56:42.498Z,99818.52
2018-08-24T10:59:11.080Z,99811.84
2018-08-24T11:01:39.203Z,99827.32
2018-08-24T11:04:07.304Z,99822.88
2018-08-24T11:06:35.366Z,99840.20
2018-08-24T11:09:04.975Z,99829.02
2018-08-24T11:11:40.991Z,99842.78
2018-08-24T11:14:09.279Z,99852.45
2018-08-24T11:16:37.556Z,99858.79
2018-08-24T11:19:05.684Z,99854.20
2018-08-24T11:21:34.271Z,99866.55
2018-08-24T11:24:02.327Z,99859.55
2018-08-24T11:26:30.422Z,99884.29
2018-08-24T11:28:58.524Z,99869.63
2018-08-24T11:31:26.602Z,99894.36
2018-08-24T11:33:55.325Z,99871.77
2018-08-24T11:36:23.463Z,99877.65
2018-08-24T11:38:51.514Z,99869.98
2018-08-24T11:41:19.640Z,99864.50
2018-08-24T11:43:47.748Z,99866.66
2018-08-24T11:46:16.584Z,99873.56
2018-08-24T11:48:44.650Z,99850.33
2018-08-24T11:51:12.720Z,99854.80
2018-08-24T11:53:40.817Z,99863.30
2018-08-24T11:56:08.977Z,99864.16
2018-08-24T11:58:37.059Z,99875.73
2018-08-24T12:01:05.144Z,99865.72
2018-08-24T12:03:33.243Z,99861.04
2018-08-24T12:06:01.474Z,99855.41
2018-08-24T12:08:29.635Z,99855.25
2018-08-24T12:10:57.657Z,99862.22
2018-08-24T12:13:25.763Z,99853.20
2018-08-24T12:15:54.106Z,99858.42
2018-08-24T12:18:22.228Z,99859.84
2018-08-24T12:20:50.336Z,99853.57
2018-08-24T12:23:18.447Z,99867.61
2018-08-24T12:25:46.884Z,99859.80
2018-08-24T12:28:14.999Z,99856.20
2018-08-24T12:30:43.075Z,99848.98
2018-08-24T12:33:11.286Z,99853.36
2018-08-24T12:35:39.413Z,99858.76
2018-08-24T12:38:07.582Z,99859.06
2018-08-24T12:40:35.644Z,99854.15
2018-08-24T12:43:03.794Z,99850.44
2018-08-24T12:45:31.855Z,99847.14
2018-08-24T12:48:00.048Z,99845.42
2018-08-24T12:50:28.150Z,99833.79
2018-08-24T12:52:56.286Z,99850.78
2018-08-24T12:55:24.413Z,99838.12
2018-08-24T12:57:52.535Z,99841.72
2018-08-24T13:00:20.641Z,99851.32
2018-08-24T13:02:48.802Z,99843.40
2018-08-24T13:05:17.379Z,99827.63
2018-08-24T13:07:45.459Z,99834.49
2018-08-24T13:10:13.544Z,99835.30
2018-08-24T13:12:41.608Z,99827.42
2018-08-24T13:15:10.726Z,99827.63
2018-08-24T13:17:38.798Z,99812.88
2018-08-24T13:20:06.875Z,99816.31
2018-08-24T13:22:34.956Z,99817.74
2018-08-24T13:25:03.035Z,99814.25
2018-08-24T13:27:31.120Z,99804.38
2018-08-24T13:29:59.188Z,99818.89
2018-08-24T13:32:27.270Z,99812.83
2018-08-24T13:34:55.358Z,99807.28
2018-08-24T13:37:23.427Z,99803.77
2018-08-24T13:39:51.792Z,99795.09
2018-08-24T13:42:19.866Z,99792.16
2018-08-24T13:44:47.974Z,99789.08
2018-08-24T13:47:16.118Z,99789.27
2018-08-24T13:49:44.159Z,99794.75
2018-08-24T13:52:12.463Z,99773.77
2018-08-24T13:54:41.022Z,99772.30
2018-08-24T13:57:09.059Z,99780.67
2018-08-24T13:59:37.216Z,99777.68
2018-08-24T14:02:05.294Z,99772.25
2018-08-24T14:04:33.342Z,99766.64
2018-08-24T14:07:01.446Z,99765.11
2018-08-24T14:09:29.567Z,99767.36
2018-08-24T14:11:57.704Z,99783.83
2018-08-24T14:14:25.778Z,99764.47
2018-08-24T14:16:53.838Z,99772.48
2018-08-24T14:19:21.923Z,99763.42
2018-08-24T14:21:49.977Z,99760.13
2018-08-24T14:24:18.115Z,99756.72
2018-08-24T14:26:46.194Z,99754.59
2018-08-24T14:29:14.279Z,99766.48
2018-08-24T14:31:42.414Z,99743.76
2018-08-24T14:34:10.469Z,99739.23
2018-08-24T14:36:38.978Z,99741.80
2018-08-24T14:39:08.318Z,99731.82
2018-08-24T14:41:36.415Z,99731.78
2018-08-24T14:44:04.727Z,99735.56
2018-08-24T14:46:32.809Z,99736.98
2018-08-24T14:49:01.911Z,99742.45
2018-08-24T14:51:30.561Z,99750.26
2018-08-24T14:53:58.654Z,99739.52
2018-08-24T14:56:26.714Z,99743.48
2018-08-24T14:58:54.837Z,99741.66
2018-08-24T15:01:23.035Z,99738.78
2018-08-24T15:03:51.142Z,99745.20
2018-08-24T15:06:19.243Z,99739.35
2018-08-24T15:08:47.582Z,99750.56
2018-08-24T15:11:15.753Z,99748.52
2018-08-24T15:13:43.792Z,99748.63
2018-08-24T15:16:11.955Z,99751.81
2018-08-24T15:18:40.054Z,99746.02
2018-08-24T15:21:08.152Z,99747.36
2018-08-24T15:23:36.323Z,99751.42
2018-08-24T15:26:04.498Z,99747.16
2018-08-24T15:28:32.702Z,99741.94
2018-08-24T15:31:00.798Z,99737.02
2018-08-24T15:33:29.049Z,99732.86
2018-08-24T15:35:57.434Z,99743.11
2018-08-24T15:38:25.611Z,99751.66
2018-08-24T15:40:53.776Z,99732.72
2018-08-24T15:43:21.947Z,99731.08
2018-08-24T15:45:50.039Z,99727.11
2018-08-24T15:48:18.227Z,99738.81
2018-08-24T15:50:46.467Z,99734.52
2018-08-24T15:53:14.707Z,99734.37
2018-08-24T15:55:42.821Z,99736.95
2018-08-24T15:58:17.642Z,99723.97
2018-08-24T16:00:45.779Z,99726.52
2018-08-24T16:03:13.870Z,99735.47
2018-08-24T16:05:41.990Z,99739.93
2018-08-24T16:08:10.059Z,99731.70
2018-08-24T16:10:38.111Z,99720.77
2018-08-24T16:13:06.251Z,99712.61
2018-08-24T16:15:34.327Z,99730.26
2018-08-24T16:18:07.744Z,99721.03
2018-08-24T16:20:35.843Z,99712.98
2018-08-24T16:23:03.927Z,99716.97
2018-08-24T16:25:32.091Z,99719.69
2018-08-24T16:28:00.116Z,99723.62
2018-08-24T16:30:28.215Z,99720.92
2018-08-24T16:32:56.308Z,99726.18
2018-08-24T16:35:24.404Z,99722.67
2018-08-24T16:37:52.562Z,99719.23
2018-08-24T16:40:20.648Z,99716.36
2018-08-24T16:42:48.715Z,99718.44
2018-08-24T16:45:16.796Z,99720.30
2018-08-24T16:47:44.862Z,99733.37
2018-08-24T16:50:21.001Z,99724.40
2018-08-24T16:53:19.964Z,99723.06
2018-08-24T16:55:48.420Z,99724.53
2018-08-24T16:58:16.495Z,99724.05
2018-08-24T17:00:44.626Z,99730.59
2018-08-24T17:03:12.760Z,99724.98
2018-08-24T17:05:40.892Z,99727.95
2018-08-24T17:08:09.374Z,99712.69
2018-08-24T17:10:37.568Z,99715.44
2018-08-24T17:13:05.655Z,99717.70
2018-08-24T17:15:33.936Z,99720.97
2018-08-24T17:18:02.131Z,99724.94
2018-08-24T17:20:30.231Z,99716.63
2018-08-24T17:22:58.347Z,99713.70
2018-08-24T17:25:26.511Z,99714.11
2018-08-24T17:27:54.615Z,99721.34
2018-08-24T17:30:22.768Z,99715.52
2018-08-24T17:32:50.946Z,99721.95
2018-08-24T17:35:19.527Z,99715.89
2018-08-24T17:37:48.527Z,99720.08
2018-08-24T17:40:16.656Z,99714.72
2018-08-24T17:43:25.989Z,99713.41
2018-08-24T17:46:18.494Z,99714.92
2018-08-24T17:48:46.609Z,99717.42
2018-08-24T17:51:14.730Z,99712.39
2018-08-24T17:53:42.817Z,99711.23
2018-08-24T17:56:10.989Z,99707.32
2018-08-24T17:58:39.145Z,99710.56
2018-08-24T18:01:07.658Z,99724.45
2018-08-24T18:03:35.809Z,99721.88
2018-08-24T18:06:04.014Z,99711.59
2018-08-24T18:08:32.114Z,99722.12
2018-08-24T18:11:00.418Z,99724.56
2018-08-24T18:13:28.641Z,99721.17
2018-08-24T18:15:57.569Z,99734.98
2018-08-24T18:18:26.040Z,99728.94
2018-08-24T18:20:54.121Z,99738.97
2018-08-24T18:23:22.200Z,99733.00
2018-08-24T18:25:50.603Z,99728.66
2018-08-24T18:28:18.724Z,99736.07
2018-08-24T18:30:46.884Z,99735.42
2018-08-24T18:33:14.991Z,99742.63
2018-08-24T18:35:43.148Z,99742.21
2018-08-24T18:38:11.348Z,99740.23
2018-08-24T18:40:39.673Z,99744.52
2018-08-24T18:43:07.871Z,99744.91
2018-08-24T18:45:36.061Z,99750.48
2018-08-24T18:48:04.355Z,99748.68
2018-08-24T18:50:32.559Z,99767.00
2018-08-24T18:53:00.709Z,99764.04
2018-08-24T18:55:32.346Z,99767.00
2018-08-24T18:58:00.572Z,99764.64
2018-08-24T19:00:28.651Z,99769.24
2018-08-24T19:02:56.899Z,99778.00
2018-08-24T19:05:25.100Z,99785.12
2018-08-24T19:07:57.379Z,99784.88
2018-08-24T19:10:26.500Z,99779.63
2018-08-24T19:12:54.682Z,99783.75
2018-08-24T19:15:22.935Z,99791.77
2018-08-24T19:17:56.328Z,99786.09
2018-08-24T19:20:29.810Z,99792.20
2018-08-24T19:22:57.931Z,99803.20
2018-08-24T19:25:26.206Z,99801.05
2018-08-24T19:27:59.779Z,99802.14
2018-08-24T19:30:34.739Z,99796.53
2018-08-24T19:33:03.244Z,99803.25
2018-08-24T19:35:31.700Z,99809.70
2018-08-24T19:37:59.867Z,99815.31
2018-08-24T19:40:33.182Z,99820.63
2018-08-24T19:43:01.279Z,99821.52
2018-08-24T19:45:35.947Z,99821.36
2018-08-24T19:48:09.455Z,99822.49
2018-08-24T19:50:37.612Z,99837.23
2018-08-24T19:53:05.806Z,99843.08
2018-08-24T19:55:33.869Z,99834.36
2018-08-24T19:58:07.251Z,99839.27
2018-08-24T20:00:35.458Z,99846.18
2018-08-24T20:03:03.483Z,99848.86
2018-08-24T20:05:31.570Z,99853.28
2018-08-24T20:08:05.095Z,99861.92
2018-08-24T20:10:33.226Z,99870.61
2018-08-24T20:13:01.333Z,99865.33
2018-08-24T20:15:34.614Z,99860.59
2018-08-24T20:18:02.711Z,99863.89
2018-08-24T20:20:31.015Z,99859.59
2018-08-24T20:22:59.138Z,99862.13
2018-08-24T20:25:27.223Z,99863.78
2018-08-24T20:27:55.468Z,99862.59
2018-08-24T20:30:23.604Z,99862.96
2018-08-24T20:32:51.680Z,99869.63
2018-08-24T20:35:20.150Z,99861.13
2018-08-24T20:37:49.362Z,99866.95
2018-08-24T20:40:17.501Z,99868.30
2018-08-24T20:42:45.594Z,99866.58
2018-08-24T20:45:13.679Z,99871.36
2018-08-24T20:47:41.806Z,99874.98
2018-08-24T20:50:09.884Z,99879.36
2018-08-24T20:52:38.126Z,99875.08
2018-08-24T20:55:06.341Z,99878.52
2018-08-24T20:57:34.440Z,99871.11
2018-08-24T21:00:02.653Z,99870.22
2018-08-24T21:02:30.774Z,99870.75
2018-08-24T21:04:58.872Z,99871.47
2018-08-24T21:07:27.754Z,99874.07
2018-08-24T21:09:55.883Z,99877.56
2018-08-24T21:12:24.035Z,99877.55
2018-08-24T21:14:52.191Z,99877.88
2018-08-24T21:17:20.285Z,99869.30
2018-08-24T21:19:49.442Z,99867.61
2018-08-24T21:22:17.796Z,99877.69
2018-08-24T21:24:46.096Z,99873.26
2018-08-24T21:27:14.217Z,99868.06
2018-08-24T21:29:42.395Z,99871.09
2018-08-24T21:32:10.541Z,99866.75
2018-08-24T21:34:38.791Z,99868.59
2018-08-24T21:37:06.928Z,99872.88
2018-08-24T21:39:35.021Z,99866.38
2018-08-24T21:42:03.226Z,99867.69
2018-08-24T21:44:31.303Z,99866.39
2018-08-24T21:46:59.753Z,99870.41
2018-08-24T21:49:28.208Z,99876.19
2018-08-24T21:51:56.312Z,99876.28
2018-08-24T21:54:24.463Z,99874.53
2018-08-24T21:56:52.593Z,99874.14
2018-08-24T21:59:20.770Z,99873.69
2018-08-24T22:01:49.510Z,99866.24
2018-08-24T22:04:17.765Z,99860.61
2018-08-24T22:06:45.856Z,99862.48
2018-08-24T22:09:14.064Z,99866.36
2018-08-24T22:11:42.580Z,99864.27
2018-08-24T22:14:10.749Z,99867.66
2018-08-24T22:16:38.880Z,99868.23
2018-08-24T22:19:07.012Z,99876.50
2018-08-24T22:21:35.106Z,99870.34
2018-08-24T22:24:03.330Z,99877.78
2018-08-24T22:26:31.625Z,99875.20
2018-08-24T22:28:59.843Z,99868.70
2018-08-24T22:31:27.995Z,99867.41
2018-08-24T22:33:56.288Z,99870.00
2018-08-24T22:36:24.407Z,99865.16
2018-08-24T22:38:52.536Z,99861.27
2018-08-24T22:41:20.754Z,99867.34
2018-08-24T22:43:51.583Z,99878.22
2018-08-24T22:46:19.806Z,99869.56
2018-08-24T22:48:47.874Z,99870.88
2018-08-24T22:51:16.129Z,99871.73
2018-08-24T22:53:44.279Z,99876.09
2018-08-24T22:56:12.342Z,99876.94
2018-08-24T22:58:40.670Z,99878.21
2018-08-24T23:01:09.190Z,99876.94
2018-08-24T23:03:37.407Z,99877.84
2018-08-24T23:06:06.076Z,99876.54
2018-08-24T23:08:34.208Z,99868.34
2018-08-24T23:11:02.418Z,99863.63
2018-08-24T23:13:30.597Z,99860.13
2018-08-24T23:15:58.772Z,99868.77
2018-08-24T23:18:26.964Z,99859.30
2018-08-24T23:20:55.122Z,99865.31
2018-08-24T23:23:23.265Z,99860.59
2018-08-24T23:25:51.348Z,99862.33
2018-08-24T23:29:40.335Z,99865.36
2018-08-24T23:32:08.475Z,99861.89
2018-08-24T23:34:37.421Z,99858.44
2018-08-24T23:37:07.036Z,99862.34
2018-08-24T23:39:35.207Z,99860.17
2018-08-24T23:42:03.455Z,99863.59
2018-08-24T23:44:31.850Z,99864.91
2018-08-24T23:47:00.040Z,99860.16
2018-08-24T23:49:28.210Z,99857.13
2018-08-24T23:51:56.354Z,99851.89
2018-08-24T23:54:24.499Z,99849.74
2018-08-24T23:56:52.617Z,99841.57
2018-08-24T23:59:20.761Z,99844.16
